sensor_id;sensor_type;location;lat;lon;timestamp;P1;durP1;ratioP1;P2;durP2;ratioP2
10717;SDS011;13513;42.700;23.124;2022-12-05T00:01:52;15.53;;;9.13;;
10717;SDS011;13513;42.700;23.124;2022-12-05T00:04:23;16.63;;;9.57;;
10717;SDS011;13513;42.700;23.124;2022-12-05T00:06:54;14.60;;;9.07;;
10717;SDS011;13513;42.700;23.124;2022-12-05T00:09:26;15.97;;;9.87;;
10717;SDS011;13513;42.700;23.124;2022-12-05T00:11:57;15.10;;;9.37;;
10717;SDS011;13513;42.700;23.124;2022-12-05T00:14:28;16.07;;;10.10;;
10717;SDS011;13513;42.700;23.124;2022-12-05T00:16:59;16.07;;;10.03;;
10717;SDS011;13513;42.700;23.124;2022-12-05T00:19:30;17.90;;;9.80;;
10717;SDS011;13513;42.700;23.124;2022-12-05T00:22:01;16.50;;;9.47;;
10717;SDS011;13513;42.700;23.124;2022-12-05T00:24:32;15.90;;;9.43;;
10717;SDS011;13513;42.700;23.124;2022-12-05T00:27:03;17.10;;;10.10;;
10717;SDS011;13513;42.700;23.124;2022-12-05T00:29:34;17.47;;;10.40;;
10717;SDS011;13513;42.700;23.124;2022-12-05T00:32:05;13.57;;;9.20;;
10717;SDS011;13513;42.700;23.124;2022-12-05T00:34:35;17.10;;;10.23;;
10717;SDS011;13513;42.700;23.124;2022-12-05T00:37:06;14.80;;;8.90;;
10717;SDS011;13513;42.700;23.124;2022-12-05T00:39:37;15.37;;;9.27;;
10717;SDS011;13513;42.700;23.124;2022-12-05T00:42:08;14.47;;;9.20;;
10717;SDS011;13513;42.700;23.124;2022-12-05T00:44:38;14.90;;;9.20;;
10717;SDS011;13513;42.700;23.124;2022-12-05T00:47:08;15.00;;;9.80;;
10717;SDS011;13513;42.700;23.124;2022-12-05T00:49:38;14.17;;;9.03;;
10717;SDS011;13513;42.700;23.124;2022-12-05T00:52:08;13.60;;;9.13;;
10717;SDS011;13513;42.700;23.124;2022-12-05T00:54:39;15.07;;;9.50;;
10717;SDS011;13513;42.700;23.124;2022-12-05T00:57:11;16.23;;;9.93;;
10717;SDS011;13513;42.700;23.124;2022-12-05T00:59:41;14.83;;;9.37;;
10717;SDS011;13513;42.700;23.124;2022-12-05T01:02:12;15.43;;;9.23;;
10717;SDS011;13513;42.700;23.124;2022-12-05T01:04:43;16.63;;;9.70;;
10717;SDS011;13513;42.700;23.124;2022-12-05T01:07:14;17.87;;;10.40;;
10717;SDS011;13513;42.700;23.124;2022-12-05T01:09:45;19.03;;;10.23;;
10717;SDS011;13513;42.700;23.124;2022-12-05T01:12:15;18.07;;;10.03;;
10717;SDS011;13513;42.700;23.124;2022-12-05T01:14:45;21.70;;;11.03;;
10717;SDS011;13513;42.700;23.124;2022-12-05T01:17:16;16.17;;;10.43;;
10717;SDS011;13513;42.700;23.124;2022-12-05T01:19:46;17.63;;;10.73;;
10717;SDS011;13513;42.700;23.124;2022-12-05T01:22:16;17.83;;;11.13;;
10717;SDS011;13513;42.700;23.124;2022-12-05T01:24:47;18.47;;;11.53;;
10717;SDS011;13513;42.700;23.124;2022-12-05T01:27:17;19.97;;;12.23;;
10717;SDS011;13513;42.700;23.124;2022-12-05T01:29:48;22.23;;;12.80;;
10717;SDS011;13513;42.700;23.124;2022-12-05T01:32:19;20.57;;;12.37;;
10717;SDS011;13513;42.700;23.124;2022-12-05T01:34:49;20.63;;;10.83;;
10717;SDS011;13513;42.700;23.124;2022-12-05T01:37:20;18.87;;;11.77;;
10717;SDS011;13513;42.700;23.124;2022-12-05T01:39:51;18.73;;;10.73;;
10717;SDS011;13513;42.700;23.124;2022-12-05T01:42:22;21.50;;;10.73;;
10717;SDS011;13513;42.700;23.124;2022-12-05T01:47:28;20.17;;;11.30;;
10717;SDS011;13513;42.700;23.124;2022-12-05T01:50:01;17.67;;;11.10;;
10717;SDS011;13513;42.700;23.124;2022-12-05T01:52:34;23.77;;;12.43;;
10717;SDS011;13513;42.700;23.124;2022-12-05T01:55:06;19.50;;;11.87;;
10717;SDS011;13513;42.700;23.124;2022-12-05T01:57:37;23.67;;;12.63;;
10717;SDS011;13513;42.700;23.124;2022-12-05T02:00:09;21.23;;;13.00;;
10717;SDS011;13513;42.700;23.124;2022-12-05T02:02:41;22.27;;;12.30;;
10717;SDS011;13513;42.700;23.124;2022-12-05T02:05:21;21.73;;;11.97;;
10717;SDS011;13513;42.700;23.124;2022-12-05T02:07:47;23.23;;;12.83;;
10717;SDS011;13513;42.700;23.124;2022-12-05T02:10:19;18.50;;;12.10;;
10717;SDS011;13513;42.700;23.124;2022-12-05T02:12:49;20.97;;;12.10;;
10717;SDS011;13513;42.700;23.124;2022-12-05T02:15:41;28.07;;;12.10;;
10717;SDS011;13513;42.700;23.124;2022-12-05T02:30:08;22.87;;;11.70;;
10717;SDS011;13513;42.700;23.124;2022-12-05T02:32:50;41.77;;;12.63;;
10717;SDS011;13513;42.700;23.124;2022-12-05T02:35:36;29.97;;;13.03;;
10717;SDS011;13513;42.700;23.124;2022-12-05T02:40:57;30.83;;;12.70;;
10717;SDS011;13513;42.700;23.124;2022-12-05T02:43:43;28.57;;;12.47;;
10717;SDS011;13513;42.700;23.124;2022-12-05T02:46:15;22.77;;;11.90;;
10717;SDS011;13513;42.700;23.124;2022-12-05T02:48:45;26.53;;;12.97;;
10717;SDS011;13513;42.700;23.124;2022-12-05T02:51:18;26.13;;;12.27;;
10717;SDS011;13513;42.700;23.124;2022-12-05T02:53:49;24.17;;;12.00;;
10717;SDS011;13513;42.700;23.124;2022-12-05T02:56:21;22.50;;;11.73;;
10717;SDS011;13513;42.700;23.124;2022-12-05T02:58:54;23.10;;;11.70;;
10717;SDS011;13513;42.700;23.124;2022-12-05T03:01:26;26.43;;;10.90;;
10717;SDS011;13513;42.700;23.124;2022-12-05T03:04:00;23.47;;;12.00;;
10717;SDS011;13513;42.700;23.124;2022-12-05T03:06:35;88.70;;;12.10;;
10717;SDS011;13513;42.700;23.124;2022-12-05T03:09:08;33.17;;;11.80;;
10717;SDS011;13513;42.700;23.124;2022-12-05T03:11:40;39.90;;;11.70;;
10717;SDS011;13513;42.700;23.124;2022-12-05T03:14:18;93.10;;;12.40;;
10717;SDS011;13513;42.700;23.124;2022-12-05T03:16:52;76.80;;;11.63;;
10717;SDS011;13513;42.700;23.124;2022-12-05T03:19:25;28.67;;;10.57;;
10717;SDS011;13513;42.700;23.124;2022-12-05T03:22:05;24.33;;;11.77;;
10717;SDS011;13513;42.700;23.124;2022-12-05T03:24:39;24.73;;;11.73;;
10717;SDS011;13513;42.700;23.124;2022-12-05T03:30:08;19.13;;;10.80;;
10717;SDS011;13513;42.700;23.124;2022-12-05T03:32:40;21.57;;;11.30;;
10717;SDS011;13513;42.700;23.124;2022-12-05T03:40:41;56.80;;;14.70;;
10717;SDS011;13513;42.700;23.124;2022-12-05T03:46:08;25.40;;;10.70;;
10717;SDS011;13513;42.700;23.124;2022-12-05T03:51:15;77.37;;;32.37;;
10717;SDS011;13513;42.700;23.124;2022-12-05T03:53:48;50.93;;;22.57;;
10717;SDS011;13513;42.700;23.124;2022-12-05T03:56:27;18.87;;;10.50;;
10717;SDS011;13513;42.700;23.124;2022-12-05T04:01:48;22.73;;;10.90;;
10717;SDS011;13513;42.700;23.124;2022-12-05T04:04:23;21.03;;;11.37;;
10717;SDS011;13513;42.700;23.124;2022-12-05T04:06:56;21.23;;;10.20;;
10717;SDS011;13513;42.700;23.124;2022-12-05T04:09:34;127.40;;;12.53;;
10717;SDS011;13513;42.700;23.124;2022-12-05T04:12:09;29.20;;;12.03;;
10717;SDS011;13513;42.700;23.124;2022-12-05T04:14:41;26.03;;;11.67;;
10717;SDS011;13513;42.700;23.124;2022-12-05T04:17:20;21.13;;;11.63;;
10717;SDS011;13513;42.700;23.124;2022-12-05T04:19:55;27.00;;;11.60;;
10717;SDS011;13513;42.700;23.124;2022-12-05T04:22:38;20.63;;;11.20;;
10717;SDS011;13513;42.700;23.124;2022-12-05T04:25:11;23.07;;;11.47;;
10717;SDS011;13513;42.700;23.124;2022-12-05T04:30:52;21.77;;;11.87;;
10717;SDS011;13513;42.700;23.124;2022-12-05T04:33:39;18.03;;;11.00;;
10717;SDS011;13513;42.700;23.124;2022-12-05T04:38:53;21.67;;;10.63;;
10717;SDS011;13513;42.700;23.124;2022-12-05T04:41:27;21.60;;;11.00;;
10717;SDS011;13513;42.700;23.124;2022-12-05T04:44:00;41.77;;;12.23;;
10717;SDS011;13513;42.700;23.124;2022-12-05T04:46:31;25.27;;;11.50;;
10717;SDS011;13513;42.700;23.124;2022-12-05T04:49:06;27.63;;;11.83;;
10717;SDS011;13513;42.700;23.124;2022-12-05T04:51:38;21.03;;;10.77;;
10717;SDS011;13513;42.700;23.124;2022-12-05T04:54:14;19.77;;;11.80;;
10717;SDS011;13513;42.700;23.124;2022-12-05T04:56:45;23.17;;;13.83;;
10717;SDS011;13513;42.700;23.124;2022-12-05T04:59:17;24.07;;;13.30;;
10717;SDS011;13513;42.700;23.124;2022-12-05T05:01:49;25.93;;;11.57;;
10717;SDS011;13513;42.700;23.124;2022-12-05T05:04:26;23.07;;;12.40;;
10717;SDS011;13513;42.700;23.124;2022-12-05T05:06:52;25.43;;;12.43;;
10717;SDS011;13513;42.700;23.124;2022-12-05T05:09:23;24.17;;;12.30;;
10717;SDS011;13513;42.700;23.124;2022-12-05T05:11:54;22.47;;;12.00;;
10717;SDS011;13513;42.700;23.124;2022-12-05T05:14:25;24.97;;;12.70;;
10717;SDS011;13513;42.700;23.124;2022-12-05T05:16:56;26.23;;;12.83;;
10717;SDS011;13513;42.700;23.124;2022-12-05T05:19:26;22.63;;;11.83;;
10717;SDS011;13513;42.700;23.124;2022-12-05T05:21:57;28.00;;;13.13;;
10717;SDS011;13513;42.700;23.124;2022-12-05T05:24:28;28.63;;;12.83;;
10717;SDS011;13513;42.700;23.124;2022-12-05T05:26:59;26.17;;;13.90;;
10717;SDS011;13513;42.700;23.124;2022-12-05T05:29:30;28.80;;;13.73;;
10717;SDS011;13513;42.700;23.124;2022-12-05T05:32:01;32.40;;;14.07;;
10717;SDS011;13513;42.700;23.124;2022-12-05T05:34:31;32.47;;;14.20;;
10717;SDS011;13513;42.700;23.124;2022-12-05T05:37:02;27.17;;;14.33;;
10717;SDS011;13513;42.700;23.124;2022-12-05T05:39:32;26.17;;;13.63;;
10717;SDS011;13513;42.700;23.124;2022-12-05T05:42:03;26.37;;;13.60;;
10717;SDS011;13513;42.700;23.124;2022-12-05T05:44:33;28.20;;;14.10;;
10717;SDS011;13513;42.700;23.124;2022-12-05T05:47:04;26.27;;;14.20;;
10717;SDS011;13513;42.700;23.124;2022-12-05T05:49:35;29.27;;;14.23;;
10717;SDS011;13513;42.700;23.124;2022-12-05T05:52:06;29.33;;;14.37;;
10717;SDS011;13513;42.700;23.124;2022-12-05T05:54:37;26.40;;;13.57;;
10717;SDS011;13513;42.700;23.124;2022-12-05T05:57:08;29.00;;;14.07;;
10717;SDS011;13513;42.700;23.124;2022-12-05T05:59:41;28.10;;;13.57;;
10717;SDS011;13513;42.700;23.124;2022-12-05T06:02:11;27.83;;;14.37;;
10717;SDS011;13513;42.700;23.124;2022-12-05T06:04:41;30.80;;;14.70;;
10717;SDS011;13513;42.700;23.124;2022-12-05T06:07:12;33.90;;;14.87;;
10717;SDS011;13513;42.700;23.124;2022-12-05T06:09:43;36.80;;;18.93;;
10717;SDS011;13513;42.700;23.124;2022-12-05T06:12:14;41.60;;;22.07;;
10717;SDS011;13513;42.700;23.124;2022-12-05T06:14:45;31.40;;;17.00;;
10717;SDS011;13513;42.700;23.124;2022-12-05T06:17:17;25.07;;;13.67;;
10717;SDS011;13513;42.700;23.124;2022-12-05T06:19:48;30.03;;;13.47;;
10717;SDS011;13513;42.700;23.124;2022-12-05T06:22:19;23.83;;;13.00;;
10717;SDS011;13513;42.700;23.124;2022-12-05T06:24:50;29.13;;;14.03;;
10717;SDS011;13513;42.700;23.124;2022-12-05T06:27:22;25.00;;;14.53;;
10717;SDS011;13513;42.700;23.124;2022-12-05T06:29:53;34.43;;;15.17;;
10717;SDS011;13513;42.700;23.124;2022-12-05T06:32:23;24.67;;;14.13;;
10717;SDS011;13513;42.700;23.124;2022-12-05T06:34:55;28.63;;;15.63;;
10717;SDS011;13513;42.700;23.124;2022-12-05T06:37:26;27.80;;;15.00;;
10717;SDS011;13513;42.700;23.124;2022-12-05T06:39:57;24.23;;;14.70;;
10717;SDS011;13513;42.700;23.124;2022-12-05T06:42:28;30.00;;;15.40;;
10717;SDS011;13513;42.700;23.124;2022-12-05T06:44:59;31.03;;;17.13;;
10717;SDS011;13513;42.700;23.124;2022-12-05T06:47:30;31.90;;;16.00;;
10717;SDS011;13513;42.700;23.124;2022-12-05T06:50:01;28.33;;;14.87;;
10717;SDS011;13513;42.700;23.124;2022-12-05T06:52:33;24.20;;;14.40;;
10717;SDS011;13513;42.700;23.124;2022-12-05T06:55:05;28.67;;;14.27;;
10717;SDS011;13513;42.700;23.124;2022-12-05T06:57:38;24.87;;;14.87;;
10717;SDS011;13513;42.700;23.124;2022-12-05T07:00:09;26.00;;;14.83;;
10717;SDS011;13513;42.700;23.124;2022-12-05T07:02:57;23.90;;;14.03;;
10717;SDS011;13513;42.700;23.124;2022-12-05T07:05:28;25.67;;;14.70;;
10717;SDS011;13513;42.700;23.124;2022-12-05T07:07:59;25.67;;;14.60;;
10717;SDS011;13513;42.700;23.124;2022-12-05T07:10:29;26.40;;;14.83;;
10717;SDS011;13513;42.700;23.124;2022-12-05T07:13:00;24.23;;;13.67;;
10717;SDS011;13513;42.700;23.124;2022-12-05T07:15:31;22.57;;;13.30;;
10717;SDS011;13513;42.700;23.124;2022-12-05T07:18:02;20.90;;;13.43;;
10717;SDS011;13513;42.700;23.124;2022-12-05T07:20:33;25.87;;;14.23;;
10717;SDS011;13513;42.700;23.124;2022-12-05T07:23:04;24.10;;;13.10;;
10717;SDS011;13513;42.700;23.124;2022-12-05T07:25:38;26.60;;;13.83;;
10717;SDS011;13513;42.700;23.124;2022-12-05T07:28:09;29.33;;;14.93;;
10717;SDS011;13513;42.700;23.124;2022-12-05T07:30:40;24.63;;;15.00;;
10717;SDS011;13513;42.700;23.124;2022-12-05T07:33:10;27.10;;;14.40;;
10717;SDS011;13513;42.700;23.124;2022-12-05T07:35:41;26.67;;;14.80;;
10717;SDS011;13513;42.700;23.124;2022-12-05T07:38:12;28.40;;;15.27;;
10717;SDS011;13513;42.700;23.124;2022-12-05T07:40:43;27.97;;;15.27;;
10717;SDS011;13513;42.700;23.124;2022-12-05T07:43:15;27.63;;;14.63;;
10717;SDS011;13513;42.700;23.124;2022-12-05T07:45:45;22.73;;;14.80;;
10717;SDS011;13513;42.700;23.124;2022-12-05T07:48:16;27.10;;;16.07;;
10717;SDS011;13513;42.700;23.124;2022-12-05T07:50:46;31.50;;;16.03;;
10717;SDS011;13513;42.700;23.124;2022-12-05T07:53:18;29.77;;;15.87;;
10717;SDS011;13513;42.700;23.124;2022-12-05T07:55:49;31.10;;;15.30;;
10717;SDS011;13513;42.700;23.124;2022-12-05T07:58:19;33.50;;;16.70;;
10717;SDS011;13513;42.700;23.124;2022-12-05T08:00:50;34.33;;;17.23;;
10717;SDS011;13513;42.700;23.124;2022-12-05T08:03:21;34.60;;;17.37;;
10717;SDS011;13513;42.700;23.124;2022-12-05T08:05:55;32.13;;;17.13;;
10717;SDS011;13513;42.700;23.124;2022-12-05T08:08:27;28.50;;;16.20;;
10717;SDS011;13513;42.700;23.124;2022-12-05T08:11:03;30.13;;;17.40;;
10717;SDS011;13513;42.700;23.124;2022-12-05T08:13:40;31.60;;;16.53;;
10717;SDS011;13513;42.700;23.124;2022-12-05T08:16:18;33.73;;;18.60;;
10717;SDS011;13513;42.700;23.124;2022-12-05T08:18:53;31.77;;;18.77;;
10717;SDS011;13513;42.700;23.124;2022-12-05T08:21:23;37.20;;;18.57;;
10717;SDS011;13513;42.700;23.124;2022-12-05T08:23:54;30.27;;;18.03;;
10717;SDS011;13513;42.700;23.124;2022-12-05T08:26:26;32.27;;;19.17;;
10717;SDS011;13513;42.700;23.124;2022-12-05T08:28:58;32.63;;;17.97;;
10717;SDS011;13513;42.700;23.124;2022-12-05T08:31:30;31.73;;;19.27;;
10717;SDS011;13513;42.700;23.124;2022-12-05T08:34:01;34.53;;;19.30;;
10717;SDS011;13513;42.700;23.124;2022-12-05T08:36:32;33.10;;;19.80;;
10717;SDS011;13513;42.700;23.124;2022-12-05T08:39:04;32.20;;;19.57;;
10717;SDS011;13513;42.700;23.124;2022-12-05T08:41:39;32.73;;;18.73;;
10717;SDS011;13513;42.700;23.124;2022-12-05T08:44:10;38.93;;;19.40;;
10717;SDS011;13513;42.700;23.124;2022-12-05T08:46:42;48.43;;;25.03;;
10717;SDS011;13513;42.700;23.124;2022-12-05T08:49:13;31.90;;;21.00;;
10717;SDS011;13513;42.700;23.124;2022-12-05T08:51:45;36.07;;;19.73;;
10717;SDS011;13513;42.700;23.124;2022-12-05T08:54:16;39.50;;;24.70;;
10717;SDS011;13513;42.700;23.124;2022-12-05T08:56:49;32.80;;;21.07;;
10717;SDS011;13513;42.700;23.124;2022-12-05T08:59:19;34.57;;;19.63;;
10717;SDS011;13513;42.700;23.124;2022-12-05T09:01:50;33.00;;;19.00;;
10717;SDS011;13513;42.700;23.124;2022-12-05T09:04:21;30.90;;;18.43;;
10717;SDS011;13513;42.700;23.124;2022-12-05T09:06:52;28.27;;;18.40;;
10717;SDS011;13513;42.700;23.124;2022-12-05T09:09:22;30.67;;;18.43;;
10717;SDS011;13513;42.700;23.124;2022-12-05T09:11:53;26.97;;;17.20;;
10717;SDS011;13513;42.700;23.124;2022-12-05T09:14:26;23.13;;;14.93;;
10717;SDS011;13513;42.700;23.124;2022-12-05T09:16:58;28.00;;;17.50;;
10717;SDS011;13513;42.700;23.124;2022-12-05T09:19:29;27.47;;;16.50;;
10717;SDS011;13513;42.700;23.124;2022-12-05T09:22:00;23.63;;;15.97;;
10717;SDS011;13513;42.700;23.124;2022-12-05T09:24:35;25.63;;;14.97;;
10717;SDS011;13513;42.700;23.124;2022-12-05T09:27:05;23.93;;;14.80;;
10717;SDS011;13513;42.700;23.124;2022-12-05T09:29:36;27.70;;;15.57;;
10717;SDS011;13513;42.700;23.124;2022-12-05T09:32:07;21.90;;;13.77;;
10717;SDS011;13513;42.700;23.124;2022-12-05T09:34:38;28.20;;;16.83;;
10717;SDS011;13513;42.700;23.124;2022-12-05T09:37:09;25.20;;;16.53;;
10717;SDS011;13513;42.700;23.124;2022-12-05T09:39:42;24.23;;;14.13;;
10717;SDS011;13513;42.700;23.124;2022-12-05T09:42:35;20.10;;;13.87;;
10717;SDS011;13513;42.700;23.124;2022-12-05T09:45:34;24.07;;;14.80;;
10717;SDS011;13513;42.700;23.124;2022-12-05T09:48:12;24.80;;;14.63;;
10717;SDS011;13513;42.700;23.124;2022-12-05T09:50:44;23.27;;;14.67;;
10717;SDS011;13513;42.700;23.124;2022-12-05T09:56:10;22.37;;;13.33;;
10717;SDS011;13513;42.700;23.124;2022-12-05T10:07:01;22.83;;;13.30;;
10717;SDS011;13513;42.700;23.124;2022-12-05T10:15:43;25.13;;;15.87;;
10717;SDS011;13513;42.700;23.124;2022-12-05T10:18:16;23.50;;;14.43;;
10717;SDS011;13513;42.700;23.124;2022-12-05T10:20:59;24.90;;;15.67;;
10717;SDS011;13513;42.700;23.124;2022-12-05T10:26:12;23.60;;;14.90;;
10717;SDS011;13513;42.700;23.124;2022-12-05T10:28:58;27.90;;;15.30;;
10717;SDS011;13513;42.700;23.124;2022-12-05T10:31:26;23.67;;;14.30;;
10717;SDS011;13513;42.700;23.124;2022-12-05T10:34:14;23.13;;;13.97;;
10717;SDS011;13513;42.700;23.124;2022-12-05T10:36:50;24.40;;;14.40;;
10717;SDS011;13513;42.700;23.124;2022-12-05T10:39:23;21.60;;;13.43;;
10717;SDS011;13513;42.700;23.124;2022-12-05T10:41:55;30.13;;;16.47;;
10717;SDS011;13513;42.700;23.124;2022-12-05T10:44:27;22.90;;;14.53;;
10717;SDS011;13513;42.700;23.124;2022-12-05T10:46:57;23.33;;;13.30;;
10717;SDS011;13513;42.700;23.124;2022-12-05T10:49:29;22.53;;;14.27;;
10717;SDS011;13513;42.700;23.124;2022-12-05T10:52:01;24.77;;;13.60;;
10717;SDS011;13513;42.700;23.124;2022-12-05T10:54:36;20.37;;;13.03;;
10717;SDS011;13513;42.700;23.124;2022-12-05T10:57:18;21.27;;;13.07;;
10717;SDS011;13513;42.700;23.124;2022-12-05T10:59:49;24.20;;;16.10;;
10717;SDS011;13513;42.700;23.124;2022-12-05T11:02:27;26.10;;;15.80;;
10717;SDS011;13513;42.700;23.124;2022-12-05T11:05:01;22.93;;;14.00;;
10717;SDS011;13513;42.700;23.124;2022-12-05T11:07:50;25.07;;;14.33;;
10717;SDS011;13513;42.700;23.124;2022-12-05T11:10:18;28.93;;;19.47;;
10717;SDS011;13513;42.700;23.124;2022-12-05T11:12:51;23.03;;;14.87;;
10717;SDS011;13513;42.700;23.124;2022-12-05T11:15:24;22.13;;;14.10;;
10717;SDS011;13513;42.700;23.124;2022-12-05T11:17:57;23.83;;;14.40;;
10717;SDS011;13513;42.700;23.124;2022-12-05T11:20:32;22.63;;;15.10;;
10717;SDS011;13513;42.700;23.124;2022-12-05T11:23:14;22.03;;;14.47;;
10717;SDS011;13513;42.700;23.124;2022-12-05T11:25:45;21.63;;;12.30;;
10717;SDS011;13513;42.700;23.124;2022-12-05T11:30:58;20.83;;;13.20;;
10717;SDS011;13513;42.700;23.124;2022-12-05T11:33:35;18.00;;;11.17;;
10717;SDS011;13513;42.700;23.124;2022-12-05T11:36:16;18.93;;;12.73;;
10717;SDS011;13513;42.700;23.124;2022-12-05T11:38:48;21.10;;;11.70;;
10717;SDS011;13513;42.700;23.124;2022-12-05T11:47:06;22.57;;;11.97;;
10717;SDS011;13513;42.700;23.124;2022-12-05T11:49:43;19.07;;;11.73;;
10717;SDS011;13513;42.700;23.124;2022-12-05T11:58:05;19.13;;;11.07;;
10717;SDS011;13513;42.700;23.124;2022-12-05T12:00:43;19.63;;;10.80;;
10717;SDS011;13513;42.700;23.124;2022-12-05T12:25:51;18.17;;;11.57;;
10717;SDS011;13513;42.700;23.124;2022-12-05T12:36:46;16.80;;;11.03;;
10717;SDS011;13513;42.700;23.124;2022-12-05T12:50:29;21.43;;;11.60;;
10717;SDS011;13513;42.700;23.124;2022-12-05T12:56:10;15.27;;;9.73;;
10717;SDS011;13513;42.700;23.124;2022-12-05T13:01:51;18.27;;;12.00;;
10717;SDS011;13513;42.700;23.124;2022-12-05T13:04:23;16.87;;;10.90;;
10717;SDS011;13513;42.700;23.124;2022-12-05T13:06:59;16.37;;;11.10;;
10717;SDS011;13513;42.700;23.124;2022-12-05T13:09:33;17.00;;;11.33;;
10717;SDS011;13513;42.700;23.124;2022-12-05T13:12:11;21.43;;;10.50;;
10717;SDS011;13513;42.700;23.124;2022-12-05T13:14:45;17.53;;;11.67;;
10717;SDS011;13513;42.700;23.124;2022-12-05T13:17:20;19.17;;;10.83;;
10717;SDS011;13513;42.700;23.124;2022-12-05T13:19:52;15.90;;;10.67;;
10717;SDS011;13513;42.700;23.124;2022-12-05T13:22:24;14.83;;;10.17;;
10717;SDS011;13513;42.700;23.124;2022-12-05T13:24:58;18.20;;;10.83;;
10717;SDS011;13513;42.700;23.124;2022-12-05T13:27:29;20.27;;;11.27;;
10717;SDS011;13513;42.700;23.124;2022-12-05T13:30:00;16.80;;;9.83;;
10717;SDS011;13513;42.700;23.124;2022-12-05T13:32:33;16.43;;;10.37;;
10717;SDS011;13513;42.700;23.124;2022-12-05T13:35:19;16.73;;;10.23;;
10717;SDS011;13513;42.700;23.124;2022-12-05T13:38:17;15.03;;;9.93;;
10717;SDS011;13513;42.700;23.124;2022-12-05T13:40:57;16.93;;;11.17;;
10717;SDS011;13513;42.700;23.124;2022-12-05T13:43:45;14.27;;;10.20;;
10717;SDS011;13513;42.700;23.124;2022-12-05T13:46:21;15.83;;;10.50;;
10717;SDS011;13513;42.700;23.124;2022-12-05T13:48:51;18.80;;;9.73;;
10717;SDS011;13513;42.700;23.124;2022-12-05T13:51:38;17.30;;;10.27;;
10717;SDS011;13513;42.700;23.124;2022-12-05T13:54:17;17.47;;;10.47;;
10717;SDS011;13513;42.700;23.124;2022-12-05T13:57:00;17.43;;;10.83;;
10717;SDS011;13513;42.700;23.124;2022-12-05T14:08:01;19.47;;;11.60;;
10717;SDS011;13513;42.700;23.124;2022-12-05T14:21:46;25.60;;;14.40;;
10717;SDS011;13513;42.700;23.124;2022-12-05T14:24:35;35.93;;;20.87;;
10717;SDS011;13513;42.700;23.124;2022-12-05T14:27:19;25.00;;;14.23;;
10717;SDS011;13513;42.700;23.124;2022-12-05T14:30:15;23.83;;;13.20;;
10717;SDS011;13513;42.700;23.124;2022-12-05T14:33:00;25.47;;;15.33;;
10717;SDS011;13513;42.700;23.124;2022-12-05T14:35:39;26.53;;;16.30;;
10717;SDS011;13513;42.700;23.124;2022-12-05T14:38:04;30.37;;;19.37;;
10717;SDS011;13513;42.700;23.124;2022-12-05T14:40:37;23.87;;;14.73;;
10717;SDS011;13513;42.700;23.124;2022-12-05T14:43:18;26.20;;;15.37;;
10717;SDS011;13513;42.700;23.124;2022-12-05T14:48:40;31.63;;;20.60;;
10717;SDS011;13513;42.700;23.124;2022-12-05T14:54:11;28.30;;;18.13;;
10717;SDS011;13513;42.700;23.124;2022-12-05T14:56:45;23.83;;;14.70;;
10717;SDS011;13513;42.700;23.124;2022-12-05T14:59:26;25.80;;;15.60;;
10717;SDS011;13513;42.700;23.124;2022-12-05T15:02:01;24.33;;;16.03;;
10717;SDS011;13513;42.700;23.124;2022-12-05T15:04:41;26.20;;;17.37;;
10717;SDS011;13513;42.700;23.124;2022-12-05T15:07:16;28.13;;;16.37;;
10717;SDS011;13513;42.700;23.124;2022-12-05T15:17:44;17.77;;;11.80;;
10717;SDS011;13513;42.700;23.124;2022-12-05T15:31:43;29.13;;;15.07;;
10717;SDS011;13513;42.700;23.124;2022-12-05T15:34:15;39.97;;;17.77;;
10717;SDS011;13513;42.700;23.124;2022-12-05T15:42:26;37.13;;;16.83;;
10717;SDS011;13513;42.700;23.124;2022-12-05T16:01:20;37.90;;;20.07;;
10717;SDS011;13513;42.700;23.124;2022-12-05T16:03:56;42.47;;;20.33;;
10717;SDS011;13513;42.700;23.124;2022-12-05T16:06:37;45.60;;;23.67;;
10717;SDS011;13513;42.700;23.124;2022-12-05T16:09:12;41.20;;;20.13;;
10717;SDS011;13513;42.700;23.124;2022-12-05T16:11:50;34.40;;;19.17;;
10717;SDS011;13513;42.700;23.124;2022-12-05T16:14:34;37.23;;;19.37;;
10717;SDS011;13513;42.700;23.124;2022-12-05T16:17:05;41.03;;;19.13;;
10717;SDS011;13513;42.700;23.124;2022-12-05T16:19:37;33.07;;;18.60;;
10717;SDS011;13513;42.700;23.124;2022-12-05T16:22:16;26.97;;;15.17;;
10717;SDS011;13513;42.700;23.124;2022-12-05T16:25:10;25.90;;;15.40;;
10717;SDS011;13513;42.700;23.124;2022-12-05T16:27:16;30.53;;;16.20;;
10717;SDS011;13513;42.700;23.124;2022-12-05T16:32:41;29.87;;;16.40;;
10717;SDS011;13513;42.700;23.124;2022-12-05T16:35:33;28.60;;;16.73;;
10717;SDS011;13513;42.700;23.124;2022-12-05T16:40:57;27.13;;;16.50;;
10717;SDS011;13513;42.700;23.124;2022-12-05T16:48:44;28.50;;;17.23;;
10717;SDS011;13513;42.700;23.124;2022-12-05T16:51:19;32.43;;;16.70;;
10717;SDS011;13513;42.700;23.124;2022-12-05T16:53:53;31.77;;;18.13;;
10717;SDS011;13513;42.700;23.124;2022-12-05T16:56:25;26.37;;;14.77;;
10717;SDS011;13513;42.700;23.124;2022-12-05T16:58:57;28.00;;;14.70;;
10717;SDS011;13513;42.700;23.124;2022-12-05T17:01:31;24.23;;;15.03;;
10717;SDS011;13513;42.700;23.124;2022-12-05T17:04:02;29.83;;;17.03;;
10717;SDS011;13513;42.700;23.124;2022-12-05T17:06:33;25.87;;;14.87;;
10717;SDS011;13513;42.700;23.124;2022-12-05T17:09:04;28.87;;;16.17;;
10717;SDS011;13513;42.700;23.124;2022-12-05T17:11:35;27.50;;;16.40;;
10717;SDS011;13513;42.700;23.124;2022-12-05T17:14:12;25.07;;;14.73;;
10717;SDS011;13513;42.700;23.124;2022-12-05T17:16:45;35.10;;;16.60;;
10717;SDS011;13513;42.700;23.124;2022-12-05T17:19:17;25.67;;;14.97;;
10717;SDS011;13513;42.700;23.124;2022-12-05T17:21:48;28.13;;;17.20;;
10717;SDS011;13513;42.700;23.124;2022-12-05T17:24:19;29.20;;;16.13;;
10717;SDS011;13513;42.700;23.124;2022-12-05T17:26:50;33.83;;;17.23;;
10717;SDS011;13513;42.700;23.124;2022-12-05T17:29:21;31.80;;;17.07;;
10717;SDS011;13513;42.700;23.124;2022-12-05T17:31:52;26.40;;;16.03;;
10717;SDS011;13513;42.700;23.124;2022-12-05T17:34:23;29.77;;;16.40;;
10717;SDS011;13513;42.700;23.124;2022-12-05T17:36:54;27.90;;;16.57;;
10717;SDS011;13513;42.700;23.124;2022-12-05T17:39:24;26.80;;;15.50;;
10717;SDS011;13513;42.700;23.124;2022-12-05T17:41:55;25.97;;;15.63;;
10717;SDS011;13513;42.700;23.124;2022-12-05T17:44:26;32.37;;;16.80;;
10717;SDS011;13513;42.700;23.124;2022-12-05T17:46:57;34.00;;;17.20;;
10717;SDS011;13513;42.700;23.124;2022-12-05T17:49:28;32.33;;;17.20;;
10717;SDS011;13513;42.700;23.124;2022-12-05T17:51:59;35.90;;;18.70;;
10717;SDS011;13513;42.700;23.124;2022-12-05T17:54:30;33.53;;;18.80;;
10717;SDS011;13513;42.700;23.124;2022-12-05T17:57:01;35.57;;;20.53;;
10717;SDS011;13513;42.700;23.124;2022-12-05T17:59:32;30.33;;;17.90;;
10717;SDS011;13513;42.700;23.124;2022-12-05T18:02:03;32.33;;;17.10;;
10717;SDS011;13513;42.700;23.124;2022-12-05T18:04:34;30.53;;;17.03;;